sensor_id;sensor_type;location;lat;lon;timestamp;P1;durP1;ratioP1;P2;durP2;ratioP2
40339;SDS011;26044;50.864;20.658;2022-09-29T00:00:31;11.00;;;3.85;;
40339;SDS011;26044;50.864;20.658;2022-09-29T00:02:58;13.68;;;4.72;;
40339;SDS011;26044;50.864;20.658;2022-09-29T00:05:25;7.95;;;3.97;;
40339;SDS011;26044;50.864;20.658;2022-09-29T00:07:52;8.93;;;4.00;;
40339;SDS011;26044;50.864;20.658;2022-09-29T00:10:19;8.80;;;3.85;;
40339;SDS011;26044;50.864;20.658;2022-09-29T00:12:45;10.77;;;4.13;;
40339;SDS011;26044;50.864;20.658;2022-09-29T00:15:12;7.65;;;3.28;;
40339;SDS011;26044;50.864;20.658;2022-09-29T00:17:39;12.10;;;3.40;;
40339;SDS011;26044;50.864;20.658;2022-09-29T00:20:26;9.95;;;3.75;;
40339;SDS011;26044;50.864;20.658;2022-09-29T00:22:53;12.70;;;4.20;;
40339;SDS011;26044;50.864;20.658;2022-09-29T00:25:19;12.45;;;3.88;;
40339;SDS011;26044;50.864;20.658;2022-09-29T00:27:47;10.10;;;4.35;;
40339;SDS011;26044;50.864;20.658;2022-09-29T00:30:13;11.60;;;4.03;;
40339;SDS011;26044;50.864;20.658;2022-09-29T00:32:40;12.32;;;3.95;;
40339;SDS011;26044;50.864;20.658;2022-09-29T00:35:07;10.13;;;4.05;;
40339;SDS011;26044;50.864;20.658;2022-09-29T00:37:35;11.30;;;3.92;;
40339;SDS011;26044;50.864;20.658;2022-09-29T00:40:02;10.50;;;3.90;;
40339;SDS011;26044;50.864;20.658;2022-09-29T00:42:30;11.70;;;3.70;;
40339;SDS011;26044;50.864;20.658;2022-09-29T00:45:05;8.15;;;3.80;;
40339;SDS011;26044;50.864;20.658;2022-09-29T00:47:46;11.15;;;4.25;;
40339;SDS011;26044;50.864;20.658;2022-09-29T00:50:38;11.15;;;4.03;;
40339;SDS011;26044;50.864;20.658;2022-09-29T00:53:08;10.55;;;4.38;;
40339;SDS011;26044;50.864;20.658;2022-09-29T00:55:42;12.70;;;4.40;;
40339;SDS011;26044;50.864;20.658;2022-09-29T00:58:18;10.77;;;4.20;;
40339;SDS011;26044;50.864;20.658;2022-09-29T01:00:48;10.95;;;4.20;;
40339;SDS011;26044;50.864;20.658;2022-09-29T01:03:16;14.45;;;4.40;;
40339;SDS011;26044;50.864;20.658;2022-09-29T01:05:48;10.13;;;4.82;;
40339;SDS011;26044;50.864;20.658;2022-09-29T01:08:22;10.93;;;4.63;;
40339;SDS011;26044;50.864;20.658;2022-09-29T01:11:02;9.73;;;4.60;;
40339;SDS011;26044;50.864;20.658;2022-09-29T01:13:32;11.18;;;4.70;;
40339;SDS011;26044;50.864;20.658;2022-09-29T01:15:59;12.27;;;4.78;;
40339;SDS011;26044;50.864;20.658;2022-09-29T01:18:26;11.05;;;4.82;;
40339;SDS011;26044;50.864;20.658;2022-09-29T01:21:00;13.55;;;5.32;;
40339;SDS011;26044;50.864;20.658;2022-09-29T01:24:06;10.60;;;4.88;;
40339;SDS011;26044;50.864;20.658;2022-09-29T01:35:07;9.38;;;4.10;;
40339;SDS011;26044;50.864;20.658;2022-09-29T01:37:53;8.80;;;3.42;;
40339;SDS011;26044;50.864;20.658;2022-09-29T01:43:35;8.35;;;3.20;;
40339;SDS011;26044;50.864;20.658;2022-09-29T01:46:10;7.60;;;3.38;;
40339;SDS011;26044;50.864;20.658;2022-09-29T01:48:44;8.63;;;3.33;;
40339;SDS011;26044;50.864;20.658;2022-09-29T01:51:16;10.73;;;3.60;;
40339;SDS011;26044;50.864;20.658;2022-09-29T01:53:50;6.88;;;3.55;;
40339;SDS011;26044;50.864;20.658;2022-09-29T01:56:27;12.45;;;4.28;;
40339;SDS011;26044;50.864;20.658;2022-09-29T01:59:05;11.38;;;4.70;;
40339;SDS011;26044;50.864;20.658;2022-09-29T02:01:39;13.85;;;4.95;;
40339;SDS011;26044;50.864;20.658;2022-09-29T02:04:15;16.67;;;5.10;;
40339;SDS011;26044;50.864;20.658;2022-09-29T02:06:48;10.80;;;4.30;;
40339;SDS011;26044;50.864;20.658;2022-09-29T02:09:23;14.60;;;5.25;;
40339;SDS011;26044;50.864;20.658;2022-09-29T02:11:54;13.82;;;5.60;;
40339;SDS011;26044;50.864;20.658;2022-09-29T02:14:28;16.40;;;5.85;;
40339;SDS011;26044;50.864;20.658;2022-09-29T02:17:06;13.90;;;6.00;;
40339;SDS011;26044;50.864;20.658;2022-09-29T02:19:39;15.95;;;6.68;;
40339;SDS011;26044;50.864;20.658;2022-09-29T02:22:08;14.15;;;5.30;;
40339;SDS011;26044;50.864;20.658;2022-09-29T02:24:38;15.73;;;5.90;;
40339;SDS011;26044;50.864;20.658;2022-09-29T02:27:05;15.40;;;5.78;;
40339;SDS011;26044;50.864;20.658;2022-09-29T02:29:32;11.80;;;5.20;;
40339;SDS011;26044;50.864;20.658;2022-09-29T02:32:01;16.00;;;6.25;;
40339;SDS011;26044;50.864;20.658;2022-09-29T02:34:33;14.80;;;5.93;;
40339;SDS011;26044;50.864;20.658;2022-09-29T02:37:13;15.98;;;5.72;;
40339;SDS011;26044;50.864;20.658;2022-09-29T02:40:03;16.00;;;5.65;;
40339;SDS011;26044;50.864;20.658;2022-09-29T02:45:35;12.13;;;5.72;;
40339;SDS011;26044;50.864;20.658;2022-09-29T02:48:19;18.90;;;6.20;;
40339;SDS011;26044;50.864;20.658;2022-09-29T02:56:28;16.67;;;6.28;;
40339;SDS011;26044;50.864;20.658;2022-09-29T02:59:22;18.70;;;6.18;;
40339;SDS011;26044;50.864;20.658;2022-09-29T03:01:54;16.60;;;5.95;;
40339;SDS011;26044;50.864;20.658;2022-09-29T03:04:23;16.25;;;5.88;;
40339;SDS011;26044;50.864;20.658;2022-09-29T03:06:51;16.42;;;5.93;;
40339;SDS011;26044;50.864;20.658;2022-09-29T03:09:19;13.05;;;5.47;;
40339;SDS011;26044;50.864;20.658;2022-09-29T03:11:45;15.93;;;5.18;;
40339;SDS011;26044;50.864;20.658;2022-09-29T03:14:12;14.80;;;5.47;;
40339;SDS011;26044;50.864;20.658;2022-09-29T03:16:41;14.23;;;6.00;;
40339;SDS011;26044;50.864;20.658;2022-09-29T03:19:08;15.38;;;5.75;;
40339;SDS011;26044;50.864;20.658;2022-09-29T03:21:36;13.38;;;5.55;;
40339;SDS011;26044;50.864;20.658;2022-09-29T03:24:03;14.93;;;5.68;;
40339;SDS011;26044;50.864;20.658;2022-09-29T03:26:30;15.57;;;5.90;;
40339;SDS011;26044;50.864;20.658;2022-09-29T03:28:57;14.43;;;6.18;;
40339;SDS011;26044;50.864;20.658;2022-09-29T03:31:25;18.13;;;7.70;;
40339;SDS011;26044;50.864;20.658;2022-09-29T03:33:52;16.88;;;7.35;;
40339;SDS011;26044;50.864;20.658;2022-09-29T03:36:19;19.27;;;8.35;;
40339;SDS011;26044;50.864;20.658;2022-09-29T03:38:45;16.58;;;6.85;;
40339;SDS011;26044;50.864;20.658;2022-09-29T03:41:12;17.70;;;7.65;;
40339;SDS011;26044;50.864;20.658;2022-09-29T03:43:39;17.70;;;6.45;;
40339;SDS011;26044;50.864;20.658;2022-09-29T03:46:05;16.65;;;7.30;;
40339;SDS011;26044;50.864;20.658;2022-09-29T03:48:32;17.73;;;7.20;;
40339;SDS011;26044;50.864;20.658;2022-09-29T03:51:00;17.48;;;6.93;;
40339;SDS011;26044;50.864;20.658;2022-09-29T03:53:27;17.35;;;7.18;;
40339;SDS011;26044;50.864;20.658;2022-09-29T03:55:54;17.42;;;6.68;;
40339;SDS011;26044;50.864;20.658;2022-09-29T03:58:21;18.88;;;8.40;;
40339;SDS011;26044;50.864;20.658;2022-09-29T04:00:47;17.08;;;7.65;;
40339;SDS011;26044;50.864;20.658;2022-09-29T04:03:15;18.35;;;7.53;;
40339;SDS011;26044;50.864;20.658;2022-09-29T04:05:46;18.52;;;7.85;;
40339;SDS011;26044;50.864;20.658;2022-09-29T04:08:13;20.30;;;8.55;;
40339;SDS011;26044;50.864;20.658;2022-09-29T04:10:41;20.98;;;10.65;;
40339;SDS011;26044;50.864;20.658;2022-09-29T04:13:10;22.30;;;9.70;;
40339;SDS011;26044;50.864;20.658;2022-09-29T04:15:41;20.88;;;9.60;;
40339;SDS011;26044;50.864;20.658;2022-09-29T04:18:08;24.52;;;10.43;;
40339;SDS011;26044;50.864;20.658;2022-09-29T04:20:36;18.70;;;9.23;;
40339;SDS011;26044;50.864;20.658;2022-09-29T04:23:02;21.48;;;9.50;;
40339;SDS011;26044;50.864;20.658;2022-09-29T04:25:32;19.35;;;8.18;;
40339;SDS011;26044;50.864;20.658;2022-09-29T04:27:59;17.80;;;8.27;;
40339;SDS011;26044;50.864;20.658;2022-09-29T04:30:26;19.80;;;8.73;;
40339;SDS011;26044;50.864;20.658;2022-09-29T04:32:52;18.88;;;8.27;;
40339;SDS011;26044;50.864;20.658;2022-09-29T04:35:19;17.73;;;7.60;;
40339;SDS011;26044;50.864;20.658;2022-09-29T04:37:46;20.00;;;8.35;;
40339;SDS011;26044;50.864;20.658;2022-09-29T04:40:12;18.83;;;7.57;;
40339;SDS011;26044;50.864;20.658;2022-09-29T04:42:39;19.35;;;8.27;;
40339;SDS011;26044;50.864;20.658;2022-09-29T04:45:06;21.25;;;8.48;;
40339;SDS011;26044;50.864;20.658;2022-09-29T04:47:33;21.73;;;8.27;;
40339;SDS011;26044;50.864;20.658;2022-09-29T04:50:00;19.08;;;7.93;;
40339;SDS011;26044;50.864;20.658;2022-09-29T04:52:26;19.35;;;8.32;;
40339;SDS011;26044;50.864;20.658;2022-09-29T04:54:53;19.88;;;8.82;;
40339;SDS011;26044;50.864;20.658;2022-09-29T04:57:20;21.98;;;8.80;;
40339;SDS011;26044;50.864;20.658;2022-09-29T04:59:47;20.92;;;9.25;;
40339;SDS011;26044;50.864;20.658;2022-09-29T05:02:17;20.27;;;8.70;;
40339;SDS011;26044;50.864;20.658;2022-09-29T05:04:44;26.60;;;14.63;;
40339;SDS011;26044;50.864;20.658;2022-09-29T05:07:13;25.92;;;14.32;;
40339;SDS011;26044;50.864;20.658;2022-09-29T05:09:40;26.38;;;13.25;;
40339;SDS011;26044;50.864;20.658;2022-09-29T05:12:07;26.67;;;13.48;;
40339;SDS011;26044;50.864;20.658;2022-09-29T05:14:35;22.50;;;11.52;;
40339;SDS011;26044;50.864;20.658;2022-09-29T05:17:02;24.90;;;12.10;;
40339;SDS011;26044;50.864;20.658;2022-09-29T05:19:29;27.20;;;12.73;;
40339;SDS011;26044;50.864;20.658;2022-09-29T05:21:57;24.08;;;11.75;;
40339;SDS011;26044;50.864;20.658;2022-09-29T05:24:25;23.02;;;11.65;;
40339;SDS011;26044;50.864;20.658;2022-09-29T05:26:52;25.05;;;12.00;;
40339;SDS011;26044;50.864;20.658;2022-09-29T05:29:23;24.58;;;10.88;;
40339;SDS011;26044;50.864;20.658;2022-09-29T05:31:50;21.52;;;9.73;;
40339;SDS011;26044;50.864;20.658;2022-09-29T05:34:17;24.67;;;10.77;;
40339;SDS011;26044;50.864;20.658;2022-09-29T05:36:44;24.30;;;12.50;;
40339;SDS011;26044;50.864;20.658;2022-09-29T05:39:11;28.60;;;14.82;;
40339;SDS011;26044;50.864;20.658;2022-09-29T05:41:38;25.73;;;13.65;;
40339;SDS011;26044;50.864;20.658;2022-09-29T05:44:05;23.83;;;11.02;;
40339;SDS011;26044;50.864;20.658;2022-09-29T05:46:32;23.77;;;12.48;;
40339;SDS011;26044;50.864;20.658;2022-09-29T05:48:58;25.83;;;13.68;;
40339;SDS011;26044;50.864;20.658;2022-09-29T05:51:25;30.38;;;17.08;;
40339;SDS011;26044;50.864;20.658;2022-09-29T05:53:52;29.77;;;15.93;;
40339;SDS011;26044;50.864;20.658;2022-09-29T05:56:21;26.35;;;14.43;;
40339;SDS011;26044;50.864;20.658;2022-09-29T05:58:49;25.45;;;12.40;;
40339;SDS011;26044;50.864;20.658;2022-09-29T06:01:24;24.60;;;11.90;;
40339;SDS011;26044;50.864;20.658;2022-09-29T06:03:54;26.48;;;12.57;;
40339;SDS011;26044;50.864;20.658;2022-09-29T06:06:23;25.85;;;11.45;;
40339;SDS011;26044;50.864;20.658;2022-09-29T06:08:52;23.90;;;12.07;;
40339;SDS011;26044;50.864;20.658;2022-09-29T06:11:24;22.13;;;11.10;;
40339;SDS011;26044;50.864;20.658;2022-09-29T06:13:52;25.60;;;12.45;;
40339;SDS011;26044;50.864;20.658;2022-09-29T06:16:22;24.77;;;12.43;;
40339;SDS011;26044;50.864;20.658;2022-09-29T06:18:54;28.13;;;13.70;;
40339;SDS011;26044;50.864;20.658;2022-09-29T06:21:24;26.63;;;14.05;;
40339;SDS011;26044;50.864;20.658;2022-09-29T06:23:53;29.50;;;14.80;;
40339;SDS011;26044;50.864;20.658;2022-09-29T06:26:21;23.77;;;12.27;;
40339;SDS011;26044;50.864;20.658;2022-09-29T06:28:49;24.98;;;11.60;;
40339;SDS011;26044;50.864;20.658;2022-09-29T06:31:20;24.48;;;11.20;;
40339;SDS011;26044;50.864;20.658;2022-09-29T06:33:49;22.70;;;10.97;;
40339;SDS011;26044;50.864;20.658;2022-09-29T06:36:20;22.45;;;10.98;;
40339;SDS011;26044;50.864;20.658;2022-09-29T06:39:11;26.60;;;12.60;;
40339;SDS011;26044;50.864;20.658;2022-09-29T06:41:39;28.85;;;16.45;;
40339;SDS011;26044;50.864;20.658;2022-09-29T06:44:08;26.65;;;13.85;;
40339;SDS011;26044;50.864;20.658;2022-09-29T06:46:35;26.02;;;13.85;;
40339;SDS011;26044;50.864;20.658;2022-09-29T06:49:02;25.13;;;13.32;;
40339;SDS011;26044;50.864;20.658;2022-09-29T06:51:29;27.33;;;14.88;;
40339;SDS011;26044;50.864;20.658;2022-09-29T06:54:11;24.00;;;12.02;;
40339;SDS011;26044;50.864;20.658;2022-09-29T06:56:38;22.98;;;11.55;;
40339;SDS011;26044;50.864;20.658;2022-09-29T06:59:05;21.73;;;11.55;;
40339;SDS011;26044;50.864;20.658;2022-09-29T07:01:33;21.25;;;10.23;;
40339;SDS011;26044;50.864;20.658;2022-09-29T07:04:00;21.58;;;9.98;;
40339;SDS011;26044;50.864;20.658;2022-09-29T07:06:28;23.65;;;11.45;;
40339;SDS011;26044;50.864;20.658;2022-09-29T07:08:55;24.15;;;11.00;;
40339;SDS011;26044;50.864;20.658;2022-09-29T07:11:24;22.08;;;10.73;;
40339;SDS011;26044;50.864;20.658;2022-09-29T07:13:51;24.40;;;11.75;;
40339;SDS011;26044;50.864;20.658;2022-09-29T07:16:20;23.73;;;11.45;;
40339;SDS011;26044;50.864;20.658;2022-09-29T07:18:49;22.40;;;11.18;;
40339;SDS011;26044;50.864;20.658;2022-09-29T07:21:16;25.42;;;12.07;;
40339;SDS011;26044;50.864;20.658;2022-09-29T07:23:45;23.00;;;10.60;;
40339;SDS011;26044;50.864;20.658;2022-09-29T07:26:13;26.58;;;13.00;;
40339;SDS011;26044;50.864;20.658;2022-09-29T07:28:42;26.97;;;12.43;;
40339;SDS011;26044;50.864;20.658;2022-09-29T07:31:11;23.98;;;12.20;;
40339;SDS011;26044;50.864;20.658;2022-09-29T07:33:43;25.80;;;12.40;;
40339;SDS011;26044;50.864;20.658;2022-09-29T07:36:11;23.33;;;11.18;;
40339;SDS011;26044;50.864;20.658;2022-09-29T07:38:39;26.23;;;11.95;;
40339;SDS011;26044;50.864;20.658;2022-09-29T07:41:08;23.83;;;11.45;;
40339;SDS011;26044;50.864;20.658;2022-09-29T07:43:37;31.65;;;13.65;;
40339;SDS011;26044;50.864;20.658;2022-09-29T07:46:04;29.20;;;14.25;;
40339;SDS011;26044;50.864;20.658;2022-09-29T07:48:32;24.50;;;11.68;;
40339;SDS011;26044;50.864;20.658;2022-09-29T07:51:05;26.30;;;13.07;;
40339;SDS011;26044;50.864;20.658;2022-09-29T07:53:37;27.52;;;15.80;;
40339;SDS011;26044;50.864;20.658;2022-09-29T07:56:05;24.98;;;12.32;;
40339;SDS011;26044;50.864;20.658;2022-09-29T07:58:33;24.58;;;12.25;;
40339;SDS011;26044;50.864;20.658;2022-09-29T08:01:00;21.17;;;10.13;;
40339;SDS011;26044;50.864;20.658;2022-09-29T08:03:31;21.67;;;10.73;;
40339;SDS011;26044;50.864;20.658;2022-09-29T08:05:58;26.60;;;11.32;;
40339;SDS011;26044;50.864;20.658;2022-09-29T08:08:24;23.35;;;11.07;;
40339;SDS011;26044;50.864;20.658;2022-09-29T08:10:59;23.00;;;10.68;;
40339;SDS011;26044;50.864;20.658;2022-09-29T08:13:27;34.95;;;11.45;;
40339;SDS011;26044;50.864;20.658;2022-09-29T08:15:56;20.45;;;8.52;;
40339;SDS011;26044;50.864;20.658;2022-09-29T08:18:26;19.00;;;7.93;;
40339;SDS011;26044;50.864;20.658;2022-09-29T08:20:54;21.00;;;7.97;;
40339;SDS011;26044;50.864;20.658;2022-09-29T08:23:26;20.83;;;9.90;;
40339;SDS011;26044;50.864;20.658;2022-09-29T08:26:07;19.92;;;9.48;;
40339;SDS011;26044;50.864;20.658;2022-09-29T08:28:35;20.02;;;8.25;;
40339;SDS011;26044;50.864;20.658;2022-09-29T08:31:11;19.13;;;9.35;;
40339;SDS011;26044;50.864;20.658;2022-09-29T08:33:50;22.20;;;9.23;;
40339;SDS011;26044;50.864;20.658;2022-09-29T08:36:18;19.77;;;8.70;;
40339;SDS011;26044;50.864;20.658;2022-09-29T08:38:53;19.17;;;8.20;;
40339;SDS011;26044;50.864;20.658;2022-09-29T08:47:21;18.20;;;7.90;;
40339;SDS011;26044;50.864;20.658;2022-09-29T08:50:19;18.15;;;8.40;;
40339;SDS011;26044;50.864;20.658;2022-09-29T08:52:54;19.48;;;8.98;;
40339;SDS011;26044;50.864;20.658;2022-09-29T08:55:34;19.02;;;8.48;;
40339;SDS011;26044;50.864;20.658;2022-09-29T08:58:10;16.63;;;8.00;;
40339;SDS011;26044;50.864;20.658;2022-09-29T09:00:41;19.85;;;9.25;;
40339;SDS011;26044;50.864;20.658;2022-09-29T09:09:23;17.73;;;6.95;;
40339;SDS011;26044;50.864;20.658;2022-09-29T09:14:42;18.77;;;7.22;;
40339;SDS011;26044;50.864;20.658;2022-09-29T09:23:21;13.80;;;4.80;;
40339;SDS011;26044;50.864;20.658;2022-09-29T09:25:56;13.80;;;5.30;;
40339;SDS011;26044;50.864;20.658;2022-09-29T09:28:34;16.08;;;5.10;;
40339;SDS011;26044;50.864;20.658;2022-09-29T09:31:10;17.10;;;6.60;;
40339;SDS011;26044;50.864;20.658;2022-09-29T09:33:47;16.60;;;6.55;;
40339;SDS011;26044;50.864;20.658;2022-09-29T09:36:35;15.57;;;6.50;;
40339;SDS011;26044;50.864;20.658;2022-09-29T09:41:41;14.57;;;6.20;;
40339;SDS011;26044;50.864;20.658;2022-09-29T09:46:56;15.95;;;5.80;;
40339;SDS011;26044;50.864;20.658;2022-09-29T09:49:28;12.15;;;5.15;;
40339;SDS011;26044;50.864;20.658;2022-09-29T09:54:33;18.30;;;4.57;;
40339;SDS011;26044;50.864;20.658;2022-09-29T09:59:58;14.40;;;6.00;;
40339;SDS011;26044;50.864;20.658;2022-09-29T10:02:37;14.00;;;5.10;;
40339;SDS011;26044;50.864;20.658;2022-09-29T10:05:13;13.70;;;5.53;;
40339;SDS011;26044;50.864;20.658;2022-09-29T10:07:42;11.63;;;5.05;;
40339;SDS011;26044;50.864;20.658;2022-09-29T10:10:14;12.93;;;4.90;;
40339;SDS011;26044;50.864;20.658;2022-09-29T10:12:55;13.53;;;5.37;;
40339;SDS011;26044;50.864;20.658;2022-09-29T10:18:39;10.95;;;4.72;;
40339;SDS011;26044;50.864;20.658;2022-09-29T10:23:56;13.32;;;4.90;;
40339;SDS011;26044;50.864;20.658;2022-09-29T10:32:00;11.95;;;4.75;;
40339;SDS011;26044;50.864;20.658;2022-09-29T10:34:31;13.43;;;5.53;;
40339;SDS011;26044;50.864;20.658;2022-09-29T10:37:02;23.17;;;6.03;;
40339;SDS011;26044;50.864;20.658;2022-09-29T10:42:12;16.25;;;6.50;;
40339;SDS011;26044;50.864;20.658;2022-09-29T10:45:29;15.68;;;6.10;;
40339;SDS011;26044;50.864;20.658;2022-09-29T10:47:37;18.30;;;6.47;;
40339;SDS011;26044;50.864;20.658;2022-09-29T10:52:59;16.88;;;5.80;;
40339;SDS011;26044;50.864;20.658;2022-09-29T10:55:49;11.13;;;4.50;;
40339;SDS011;26044;50.864;20.658;2022-09-29T10:58:25;12.93;;;4.20;;
40339;SDS011;26044;50.864;20.658;2022-09-29T11:01:14;18.63;;;5.13;;
40339;SDS011;26044;50.864;20.658;2022-09-29T11:03:47;15.48;;;5.03;;
40339;SDS011;26044;50.864;20.658;2022-09-29T11:06:23;13.25;;;5.60;;
40339;SDS011;26044;50.864;20.658;2022-09-29T11:09:03;12.10;;;4.90;;
40339;SDS011;26044;50.864;20.658;2022-09-29T11:11:57;12.43;;;4.85;;
40339;SDS011;26044;50.864;20.658;2022-09-29T11:17:05;9.95;;;4.50;;
40339;SDS011;26044;50.864;20.658;2022-09-29T11:19:49;13.90;;;4.63;;
40339;SDS011;26044;50.864;20.658;2022-09-29T11:30:26;16.80;;;4.70;;
40339;SDS011;26044;50.864;20.658;2022-09-29T11:33:12;12.70;;;4.78;;
40339;SDS011;26044;50.864;20.658;2022-09-29T11:38:37;9.93;;;4.47;;
40339;SDS011;26044;50.864;20.658;2022-09-29T11:41:25;12.20;;;4.65;;
40339;SDS011;26044;50.864;20.658;2022-09-29T11:52:32;13.82;;;4.90;;
40339;SDS011;26044;50.864;20.658;2022-09-29T11:58:00;14.77;;;5.10;;
40339;SDS011;26044;50.864;20.658;2022-09-29T12:01:10;9.93;;;4.18;;
40339;SDS011;26044;50.864;20.658;2022-09-29T12:03:58;11.98;;;4.32;;
40339;SDS011;26044;50.864;20.658;2022-09-29T12:06:41;10.05;;;4.32;;
40339;SDS011;26044;50.864;20.658;2022-09-29T12:09:23;11.75;;;4.15;;
40339;SDS011;26044;50.864;20.658;2022-09-29T12:15:06;10.38;;;4.53;;
40339;SDS011;26044;50.864;20.658;2022-09-29T12:17:47;10.73;;;4.15;;
40339;SDS011;26044;50.864;20.658;2022-09-29T12:20:26;10.98;;;4.15;;
40339;SDS011;26044;50.864;20.658;2022-09-29T12:22:57;13.02;;;5.13;;
40339;SDS011;26044;50.864;20.658;2022-09-29T12:25:32;7.95;;;3.85;;
40339;SDS011;26044;50.864;20.658;2022-09-29T12:28:04;12.93;;;4.45;;
40339;SDS011;26044;50.864;20.658;2022-09-29T12:30:43;11.43;;;4.30;;
40339;SDS011;26044;50.864;20.658;2022-09-29T12:33:39;7.55;;;3.63;;
40339;SDS011;26044;50.864;20.658;2022-09-29T12:52:57;9.43;;;4.00;;
40339;SDS011;26044;50.864;20.658;2022-09-29T12:55:53;13.38;;;4.57;;
40339;SDS011;26044;50.864;20.658;2022-09-29T13:03:52;9.45;;;3.80;;
40339;SDS011;26044;50.864;20.658;2022-09-29T13:12:06;9.35;;;3.53;;
40339;SDS011;26044;50.864;20.658;2022-09-29T13:15:13;10.00;;;3.95;;
40339;SDS011;26044;50.864;20.658;2022-09-29T13:23:21;14.32;;;4.50;;
40339;SDS011;26044;50.864;20.658;2022-09-29T13:26:23;10.43;;;4.10;;
40339;SDS011;26044;50.864;20.658;2022-09-29T13:28:56;12.68;;;4.53;;
40339;SDS011;26044;50.864;20.658;2022-09-29T13:31:28;17.67;;;4.95;;
40339;SDS011;26044;50.864;20.658;2022-09-29T13:34:04;13.55;;;3.92;;
40339;SDS011;26044;50.864;20.658;2022-09-29T13:36:32;8.05;;;3.88;;
40339;SDS011;26044;50.864;20.658;2022-09-29T13:39:06;10.38;;;4.03;;
40339;SDS011;26044;50.864;20.658;2022-09-29T13:41:44;9.43;;;3.42;;
40339;SDS011;26044;50.864;20.658;2022-09-29T13:46:49;11.85;;;4.88;;
40339;SDS011;26044;50.864;20.658;2022-09-29T13:54:38;16.20;;;4.85;;
40339;SDS011;26044;50.864;20.658;2022-09-29T13:59:43;16.05;;;4.53;;
40339;SDS011;26044;50.864;20.658;2022-09-29T14:05:00;10.60;;;4.18;;
40339;SDS011;26044;50.864;20.658;2022-09-29T14:07:39;12.05;;;4.40;;
40339;SDS011;26044;50.864;20.658;2022-09-29T14:13:06;9.15;;;4.25;;
40339;SDS011;26044;50.864;20.658;2022-09-29T14:15:51;11.25;;;4.22;;
40339;SDS011;26044;50.864;20.658;2022-09-29T14:21:04;13.70;;;4.28;;
40339;SDS011;26044;50.864;20.658;2022-09-29T14:29:21;15.52;;;4.90;;
40339;SDS011;26044;50.864;20.658;2022-09-29T14:31:53;38.95;;;15.57;;
40339;SDS011;26044;50.864;20.658;2022-09-29T14:34:27;17.85;;;5.88;;
40339;SDS011;26044;50.864;20.658;2022-09-29T14:36:56;12.52;;;4.72;;
40339;SDS011;26044;50.864;20.658;2022-09-29T14:39:25;14.68;;;5.07;;
40339;SDS011;26044;50.864;20.658;2022-09-29T14:41:53;13.40;;;4.88;;
40339;SDS011;26044;50.864;20.658;2022-09-29T14:44:23;27.35;;;9.43;;
40339;SDS011;26044;50.864;20.658;2022-09-29T14:50:53;16.80;;;6.38;;
40339;SDS011;26044;50.864;20.658;2022-09-29T14:53:57;20.45;;;7.70;;
40339;SDS011;26044;50.864;20.658;2022-09-29T14:56:57;20.20;;;6.50;;
40339;SDS011;26044;50.864;20.658;2022-09-29T15:02:44;21.13;;;6.78;;
40339;SDS011;26044;50.864;20.658;2022-09-29T15:05:35;16.25;;;5.15;;
40339;SDS011;26044;50.864;20.658;2022-09-29T15:08:22;16.92;;;5.47;;
40339;SDS011;26044;50.864;20.658;2022-09-29T15:10:59;17.52;;;5.45;;
40339;SDS011;26044;50.864;20.658;2022-09-29T15:13:27;19.83;;;7.50;;
40339;SDS011;26044;50.864;20.658;2022-09-29T15:15:59;17.63;;;5.35;;
40339;SDS011;26044;50.864;20.658;2022-09-29T15:21:53;23.98;;;8.13;;
40339;SDS011;26044;50.864;20.658;2022-09-29T15:27:33;25.17;;;10.90;;
40339;SDS011;26044;50.864;20.658;2022-09-29T15:30:02;79.97;;;37.85;;
40339;SDS011;26044;50.864;20.658;2022-09-29T15:32:30;36.15;;;17.38;;
40339;SDS011;26044;50.864;20.658;2022-09-29T15:35:01;25.83;;;9.68;;
40339;SDS011;26044;50.864;20.658;2022-09-29T15:40:16;44.88;;;20.60;;
40339;SDS011;26044;50.864;20.658;2022-09-29T15:42:46;40.83;;;17.13;;
40339;SDS011;26044;50.864;20.658;2022-09-29T15:45:20;43.88;;;18.45;;
40339;SDS011;26044;50.864;20.658;2022-09-29T15:47:59;41.33;;;16.88;;
40339;SDS011;26044;50.864;20.658;2022-09-29T15:50:30;36.08;;;17.80;;
40339;SDS011;26044;50.864;20.658;2022-09-29T15:53:01;60.88;;;29.85;;
40339;SDS011;26044;50.864;20.658;2022-09-29T15:55:29;33.80;;;16.63;;
40339;SDS011;26044;50.864;20.658;2022-09-29T15:57:57;34.17;;;15.48;;
40339;SDS011;26044;50.864;20.658;2022-09-29T16:02:59;30.52;;;15.07;;
40339;SDS011;26044;50.864;20.658;2022-09-29T16:05:33;28.52;;;13.95;;
40339;SDS011;26044;50.864;20.658;2022-09-29T16:08:21;32.00;;;14.98;;
40339;SDS011;26044;50.864;20.658;2022-09-29T16:10:54;30.35;;;15.73;;
40339;SDS011;26044;50.864;20.658;2022-09-29T16:13:30;37.85;;;19.60;;
40339;SDS011;26044;50.864;20.658;2022-09-29T16:16:06;38.33;;;18.90;;
40339;SDS011;26044;50.864;20.658;2022-09-29T16:21:12;33.63;;;17.05;;
40339;SDS011;26044;50.864;20.658;2022-09-29T16:23:48;31.02;;;13.80;;
40339;SDS011;26044;50.864;20.658;2022-09-29T16:28:59;33.13;;;16.92;;
40339;SDS011;26044;50.864;20.658;2022-09-29T16:31:26;31.23;;;13.23;;
40339;SDS011;26044;50.864;20.658;2022-09-29T16:33:55;36.22;;;20.33;;
40339;SDS011;26044;50.864;20.658;2022-09-29T16:36:30;28.40;;;13.32;;
40339;SDS011;26044;50.864;20.658;2022-09-29T16:38:59;26.30;;;12.30;;
40339;SDS011;26044;50.864;20.658;2022-09-29T16:41:34;28.27;;;14.48;;
40339;SDS011;26044;50.864;20.658;2022-09-29T16:50:31;35.20;;;16.30;;
40339;SDS011;26044;50.864;20.658;2022-09-29T17:01:10;39.72;;;19.27;;
40339;SDS011;26044;50.864;20.658;2022-09-29T17:04:19;39.53;;;20.90;;
40339;SDS011;26044;50.864;20.658;2022-09-29T17:06:50;45.22;;;22.55;;
40339;SDS011;26044;50.864;20.658;2022-09-29T17:09:18;87.10;;;41.40;;
40339;SDS011;26044;50.864;20.658;2022-09-29T17:11:48;66.65;;;34.40;;
40339;SDS011;26044;50.864;20.658;2022-09-29T17:14:27;55.80;;;24.92;;
40339;SDS011;26044;50.864;20.658;2022-09-29T17:16:55;40.25;;;19.60;;
40339;SDS011;26044;50.864;20.658;2022-09-29T17:19:33;41.63;;;16.58;;
40339;SDS011;26044;50.864;20.658;2022-09-29T17:22:23;29.95;;;13.68;;
40339;SDS011;26044;50.864;20.658;2022-09-29T17:24:57;30.17;;;14.63;;
40339;SDS011;26044;50.864;20.658;2022-09-29T17:27:25;29.92;;;14.30;;
40339;SDS011;26044;50.864;20.658;2022-09-29T17:30:19;30.42;;;14.30;;
40339;SDS011;26044;50.864;20.658;2022-09-29T17:32:55;32.67;;;14.30;;
40339;SDS011;26044;50.864;20.658;2022-09-29T17:35:45;32.60;;;15.13;;
40339;SDS011;26044;50.864;20.658;2022-09-29T17:38:21;34.25;;;15.60;;
40339;SDS011;26044;50.864;20.658;2022-09-29T17:40:57;34.15;;;17.50;;
40339;SDS011;26044;50.864;20.658;2022-09-29T17:43:30;35.63;;;16.80;;
40339;SDS011;26044;50.864;20.658;2022-09-29T17:46:04;35.72;;;16.73;;
40339;SDS011;26044;50.864;20.658;2022-09-29T17:48:39;36.08;;;16.92;;
40339;SDS011;26044;50.864;20.658;2022-09-29T17:51:13;35.42;;;17.88;;
40339;SDS011;26044;50.864;20.658;2022-09-29T17:53:50;33.38;;;15.60;;
40339;SDS011;26044;50.864;20.658;2022-09-29T17:56:24;29.40;;;14.57;;
40339;SDS011;26044;50.864;20.658;2022-09-29T17:59:03;27.30;;;13.95;;
40339;SDS011;26044;50.864;20.658;2022-09-29T18:01:49;29.92;;;14.07;;
40339;SDS011;26044;50.864;20.658;2022-09-29T18:04:23;28.00;;;13.32;;